createdAt,value
2019-02-05T00:00:00.823Z,86.90
2019-02-05T00:02:31.630Z,87.20
2019-02-05T00:05:02.005Z,87.30
2019-02-05T00:07:32.691Z,86.00
2019-02-05T00:10:03.121Z,87.30
2019-02-05T00:12:35.031Z,86.40
2019-02-05T00:15:05.600Z,86.90
2019-02-05T00:17:36.591Z,88.20
2019-02-05T00:20:07.446Z,86.10
2019-02-05T00:22:37.882Z,87.60
2019-02-05T00:25:08.327Z,86.70
2019-02-05T00:27:38.672Z,86.60
2019-02-05T00:30:08.986Z,87.10
2019-02-05T00:32:39.614Z,86.90
2019-02-05T00:35:10.013Z,86.60
2019-02-05T00:37:40.257Z,86.90
2019-02-05T00:40:10.793Z,86.70
2019-02-05T00:42:41.188Z,86.00
2019-02-05T00:45:12.363Z,86.70
2019-02-05T00:47:44.138Z,86.50
2019-02-05T00:50:14.727Z,86.50
2019-02-05T00:52:45.059Z,85.70
2019-02-05T00:55:15.505Z,86.10
2019-02-05T00:57:45.933Z,87.20
2019-02-05T01:00:23.689Z,87.30
2019-02-05T01:02:54.405Z,87.20
2019-02-05T01:05:24.790Z,87.00
2019-02-05T01:07:56.133Z,86.30
2019-02-05T01:10:26.869Z,86.50
2019-02-05T01:12:57.599Z,87.20
2019-02-05T01:15:28.029Z,86.10
2019-02-05T01:17:58.454Z,85.50
2019-02-05T01:20:28.771Z,86.00
2019-02-05T01:22:59.201Z,86.10
2019-02-05T01:25:29.575Z,86.00
2019-02-05T01:28:00.017Z,87.30
2019-02-05T01:30:30.435Z,87.60
2019-02-05T01:33:04.306Z,87.90
2019-02-05T01:35:35.693Z,87.30
2019-02-05T01:38:06.090Z,87.40
2019-02-05T01:40:36.593Z,87.20
2019-02-05T01:43:07.019Z,86.90
2019-02-05T01:45:37.271Z,87.20
2019-02-05T01:48:07.775Z,87.80
2019-02-05T01:50:38.179Z,89.10
2019-02-05T01:53:08.516Z,88.70
2019-02-05T01:55:38.792Z,88.30
2019-02-05T01:58:09.161Z,88.00
2019-02-05T02:00:39.558Z,88.10
2019-02-05T02:03:10.033Z,88.50
2019-02-05T02:05:40.852Z,88.50
2019-02-05T02:08:11.529Z,88.80
2019-02-05T02:10:41.952Z,88.30
2019-02-05T02:13:12.346Z,87.60
2019-02-05T02:15:42.733Z,88.00
2019-02-05T02:18:13.182Z,88.10
2019-02-05T02:20:43.650Z,88.40
2019-02-05T02:23:14.256Z,88.60
2019-02-05T02:25:44.777Z,88.10
2019-02-05T02:28:15.069Z,88.50
2019-02-05T02:30:45.440Z,89.30
2019-02-05T02:33:16.274Z,89.40
2019-02-05T02:35:46.795Z,87.80
2019-02-05T02:38:17.167Z,87.20
2019-02-05T02:40:47.455Z,87.50
2019-02-05T02:43:17.852Z,87.20
2019-02-05T02:45:48.053Z,86.30
2019-02-05T02:48:18.313Z,86.70
2019-02-05T02:50:48.638Z,86.60
2019-02-05T02:53:19.032Z,86.40
2019-02-05T02:55:49.349Z,86.80
2019-02-05T02:58:19.901Z,84.70
2019-02-05T03:00:50.747Z,84.20
2019-02-05T03:03:21.386Z,84.00
2019-02-05T03:05:51.784Z,84.60
2019-02-05T03:08:22.211Z,84.60
2019-02-05T03:10:52.672Z,83.70
2019-02-05T03:13:23.064Z,83.10
2019-02-05T03:15:53.731Z,83.50
2019-02-05T03:18:24.152Z,83.60
2019-02-05T03:20:54.575Z,82.70
2019-02-05T03:23:24.973Z,82.50
2019-02-05T03:25:55.319Z,83.20
2019-02-05T03:28:25.682Z,83.00
2019-02-05T03:30:56.152Z,82.80
2019-02-05T03:33:26.590Z,82.90
2019-02-05T03:35:56.817Z,83.70
2019-02-05T03:38:27.238Z,83.90
2019-02-05T03:41:02.785Z,83.10
2019-02-05T03:43:35.165Z,84.00
2019-02-05T03:46:07.137Z,84.70
2019-02-05T03:48:37.763Z,84.80
2019-02-05T03:51:29.283Z,84.90
2019-02-05T03:54:38.232Z,84.80
2019-02-05T03:57:30.641Z,85.00
2019-02-05T04:00:32.821Z,85.10
2019-02-05T04:03:35.610Z,85.60
2019-02-05T04:06:19.253Z,85.90
2019-02-05T04:09:28.176Z,85.90
2019-02-05T04:12:13.753Z,86.00
2019-02-05T04:15:20.736Z,85.20
2019-02-05T04:18:20.479Z,85.40
2019-02-05T04:21:29.281Z,85.00
2019-02-05T04:24:15.119Z,85.30
2019-02-05T04:27:11.144Z,85.10
2019-02-05T04:30:20.330Z,85.40
2019-02-05T04:33:07.391Z,86.70
2019-02-05T04:36:16.587Z,86.40
2019-02-05T04:39:17.020Z,86.80
2019-02-05T04:42:25.928Z,86.70
2019-02-05T04:45:34.806Z,87.80
2019-02-05T04:48:37.959Z,87.40
2019-02-05T04:51:29.026Z,87.60
2019-02-05T04:54:18.438Z,87.10
2019-02-05T04:57:27.301Z,87.20
2019-02-05T05:00:21.682Z,86.30
2019-02-05T05:03:00.903Z,86.60
2019-02-05T05:05:53.499Z,86.70
2019-02-05T05:08:40.343Z,86.20
2019-02-05T05:11:10.674Z,86.50
2019-02-05T05:13:41.110Z,85.90
2019-02-05T05:16:11.408Z,86.90
2019-02-05T05:18:41.817Z,86.80
2019-02-05T05:21:12.376Z,86.00
2019-02-05T05:23:45.089Z,85.40
2019-02-05T05:26:15.252Z,86.40
2019-02-05T05:28:45.824Z,85.90
2019-02-05T05:31:16.353Z,85.70
2019-02-05T05:33:46.946Z,85.90
2019-02-05T05:36:17.517Z,86.00
2019-02-05T05:38:48.042Z,86.20
2019-02-05T05:41:18.872Z,86.50
2019-02-05T05:43:49.304Z,86.70
2019-02-05T05:46:19.850Z,86.80
2019-02-05T05:48:51.383Z,86.80
2019-02-05T05:51:22.014Z,87.10
2019-02-05T05:53:52.463Z,86.50
2019-02-05T05:56:23.374Z,86.80
2019-02-05T05:58:53.920Z,86.70
2019-02-05T06:01:24.516Z,86.60
2019-02-05T06:03:54.888Z,86.70
2019-02-05T06:06:25.493Z,87.30
2019-02-05T06:08:55.941Z,87.60
2019-02-05T06:11:26.368Z,88.90
2019-02-05T06:13:56.847Z,87.60
2019-02-05T06:16:27.264Z,87.30
2019-02-05T06:18:57.941Z,87.70
2019-02-05T06:21:28.334Z,86.60
2019-02-05T06:23:58.786Z,86.80
2019-02-05T06:26:29.119Z,87.10
2019-02-05T06:28:59.510Z,86.70
2019-02-05T06:31:30.002Z,87.30
2019-02-05T06:34:00.431Z,87.40
2019-02-05T06:36:30.974Z,87.20
2019-02-05T06:39:01.862Z,87.90
2019-02-05T06:41:33.362Z,88.00
2019-02-05T06:44:03.827Z,88.30
2019-02-05T06:46:34.364Z,88.00
2019-02-05T06:49:04.947Z,87.60
2019-02-05T06:51:35.483Z,87.80
2019-02-05T06:54:06.163Z,87.30
2019-02-05T06:56:36.632Z,86.90
2019-02-05T06:59:07.066Z,85.30
2019-02-05T07:01:37.551Z,84.40
2019-02-05T07:04:08.272Z,84.60
2019-02-05T07:06:38.711Z,84.00
2019-02-05T07:09:10.142Z,83.80
2019-02-05T07:11:40.643Z,83.80
2019-02-05T07:14:11.244Z,83.20
2019-02-05T07:16:41.677Z,84.10
2019-02-05T07:19:12.035Z,84.60
2019-02-05T07:21:42.961Z,83.90
2019-02-05T07:24:13.436Z,83.80
2019-02-05T07:26:43.991Z,84.10
2019-02-05T07:29:14.382Z,82.90
2019-02-05T07:31:44.735Z,81.30
2019-02-05T07:34:15.241Z,82.30
2019-02-05T07:36:46.209Z,81.50
2019-02-05T07:39:16.784Z,81.70
2019-02-05T07:41:47.286Z,80.80
2019-02-05T07:44:17.864Z,81.20
2019-02-05T07:46:48.364Z,80.50
2019-02-05T07:49:18.813Z,80.80
2019-02-05T07:51:49.241Z,81.50
2019-02-05T07:54:19.919Z,80.50
2019-02-05T07:56:50.302Z,79.90
2019-02-05T07:59:22.461Z,79.90
2019-02-05T08:01:52.762Z,79.40
2019-02-05T08:04:23.304Z,78.50
2019-02-05T08:06:53.761Z,79.00
2019-02-05T08:09:24.483Z,79.00
2019-02-05T08:11:54.976Z,79.10
2019-02-05T08:14:25.625Z,79.30
2019-02-05T08:16:56.149Z,79.30
2019-02-05T08:19:26.582Z,78.90
2019-02-05T08:21:57.083Z,78.70
2019-02-05T08:24:27.527Z,79.30
2019-02-05T08:26:57.997Z,78.60
2019-02-05T08:29:28.554Z,79.00
2019-02-05T08:31:58.961Z,78.50
2019-02-05T08:34:29.457Z,78.80
2019-02-05T08:36:59.872Z,80.20
2019-02-05T08:39:30.273Z,78.20
2019-02-05T08:42:00.723Z,80.40
2019-02-05T08:44:32.114Z,79.70
2019-02-05T08:47:02.589Z,78.70
2019-02-05T08:49:33.228Z,78.30
2019-02-05T08:52:06.741Z,78.30
2019-02-05T08:54:37.491Z,78.40
2019-02-05T08:57:07.922Z,78.50
2019-02-05T08:59:38.503Z,79.40
2019-02-05T09:02:08.888Z,79.40
2019-02-05T09:04:39.610Z,78.70
2019-02-05T09:07:10.002Z,79.30
2019-02-05T09:09:40.507Z,79.30
2019-02-05T09:12:10.977Z,78.20
2019-02-05T09:14:41.721Z,78.20
2019-02-05T09:17:12.219Z,77.70
2019-02-05T09:19:42.725Z,77.90
2019-02-05T09:22:13.150Z,76.90
2019-02-05T09:24:43.498Z,77.20
2019-02-05T09:27:13.984Z,76.80
2019-02-05T09:29:44.495Z,77.10
2019-02-05T09:32:15.162Z,76.10
2019-02-05T09:34:45.622Z,76.80
2019-02-05T09:37:16.165Z,76.40
2019-02-05T09:39:47.001Z,74.90
2019-02-05T09:42:17.546Z,75.20
2019-02-05T09:44:48.012Z,73.90
2019-02-05T09:47:18.411Z,74.20
2019-02-05T09:49:48.806Z,73.40
2019-02-05T09:52:19.237Z,74.00
2019-02-05T09:54:49.962Z,74.20
2019-02-05T09:57:20.476Z,73.90
2019-02-05T09:59:50.997Z,74.30
2019-02-05T10:02:21.277Z,73.40
2019-02-05T10:04:51.730Z,74.30
2019-02-05T10:07:22.221Z,75.00
2019-02-05T10:09:52.977Z,75.20
2019-02-05T10:12:23.442Z,76.60
2019-02-05T10:14:53.904Z,76.30
2019-02-05T10:17:24.431Z,76.40
2019-02-05T10:19:55.008Z,76.50
2019-02-05T10:22:25.606Z,77.10
2019-02-05T10:24:56.402Z,76.90
2019-02-05T10:27:26.834Z,77.60
2019-02-05T10:29:59.595Z,78.10
2019-02-05T10:32:29.431Z,77.80
2019-02-05T10:34:59.949Z,78.00
2019-02-05T10:37:30.518Z,77.90
2019-02-05T10:40:01.363Z,78.30
2019-02-05T10:42:33.018Z,78.90
2019-02-05T10:45:03.622Z,78.50
2019-02-05T10:47:34.215Z,78.70
2019-02-05T10:50:05.828Z,78.60
2019-02-05T10:52:36.283Z,79.00
2019-02-05T10:55:08.436Z,79.30
2019-02-05T10:57:38.912Z,79.50
2019-02-05T11:00:14.081Z,78.80
2019-02-05T11:02:44.472Z,79.90
2019-02-05T11:05:17.387Z,79.80
2019-02-05T11:07:48.597Z,78.80
2019-02-05T11:10:19.160Z,79.20
2019-02-05T11:12:49.621Z,79.40
2019-02-05T11:15:23.261Z,78.80
2019-02-05T11:17:53.713Z,78.00
2019-02-05T11:20:25.571Z,77.30
2019-02-05T11:22:56.226Z,75.90
2019-02-05T11:25:26.871Z,77.00
2019-02-05T11:27:57.341Z,76.40
2019-02-05T11:30:30.542Z,76.40
2019-02-05T11:33:01.016Z,77.00
2019-02-05T11:35:31.953Z,77.10
2019-02-05T11:38:02.457Z,77.00
2019-02-05T11:40:34.108Z,77.00
2019-02-05T11:43:04.668Z,76.30
2019-02-05T11:45:35.283Z,76.10
2019-02-05T11:48:08.806Z,75.90
2019-02-05T11:50:39.504Z,77.10
2019-02-05T11:53:09.851Z,76.60
2019-02-05T11:55:40.496Z,75.80
2019-02-05T11:58:11.317Z,75.20
2019-02-05T12:00:46.924Z,73.90
2019-02-05T12:03:17.883Z,73.30
2019-02-05T12:05:48.681Z,73.20
2019-02-05T12:08:19.265Z,74.00
2019-02-05T12:10:49.798Z,72.60
2019-02-05T12:13:20.291Z,72.70
2019-02-05T12:15:50.721Z,72.80
2019-02-05T12:18:21.496Z,74.10
2019-02-05T12:20:51.924Z,73.70
2019-02-05T12:23:22.581Z,73.20
2019-02-05T12:25:53.088Z,73.80
2019-02-05T12:28:23.764Z,75.10
2019-02-05T12:30:54.424Z,75.20
2019-02-05T12:33:25.163Z,75.20
2019-02-05T12:35:55.610Z,75.80
2019-02-05T12:38:26.052Z,75.50
2019-02-05T12:40:56.691Z,76.20
2019-02-05T12:43:27.183Z,76.80
2019-02-05T12:45:58.098Z,77.40
2019-02-05T12:48:28.923Z,77.50
2019-02-05T12:50:59.359Z,77.90
2019-02-05T12:53:29.932Z,78.00
2019-02-05T12:56:00.636Z,77.10
2019-02-05T12:58:31.126Z,78.30
2019-02-05T13:01:01.804Z,77.90
2019-02-05T13:03:32.442Z,77.90
2019-02-05T13:06:02.986Z,77.80
2019-02-05T13:08:33.439Z,78.00
2019-02-05T13:11:03.894Z,78.80
2019-02-05T13:13:34.371Z,79.60
2019-02-05T13:16:05.184Z,79.00
2019-02-05T13:18:35.687Z,78.60
2019-02-05T13:21:06.128Z,79.00
2019-02-05T13:23:36.683Z,78.90
2019-02-05T13:26:07.421Z,78.30
2019-02-05T13:28:37.865Z,77.20
2019-02-05T13:31:08.502Z,76.80
2019-02-05T13:33:38.974Z,76.30
2019-02-05T13:36:11.135Z,76.50
2019-02-05T13:38:41.616Z,74.90
2019-02-05T13:41:12.043Z,73.80
2019-02-05T13:43:42.467Z,73.90
2019-02-05T13:46:12.941Z,73.70
2019-02-05T13:48:43.410Z,74.00
2019-02-05T13:51:13.918Z,74.80
2019-02-05T13:53:44.427Z,74.90
2019-02-05T13:56:15.261Z,76.00
2019-02-05T13:58:45.646Z,75.90
2019-02-05T14:01:20.085Z,76.40
2019-02-05T14:03:48.075Z,76.30
2019-02-05T14:06:18.454Z,77.30
2019-02-05T14:08:48.813Z,76.80
2019-02-05T14:11:19.136Z,77.90
2019-02-05T14:13:49.532Z,78.30
2019-02-05T14:16:20.009Z,78.10
2019-02-05T14:18:55.323Z,78.40
2019-02-05T14:21:23.132Z,79.80
2019-02-05T14:23:54.324Z,79.20
2019-02-05T14:26:25.128Z,78.70
2019-02-05T14:28:55.742Z,79.50
2019-02-05T14:31:31.428Z,79.70
2019-02-05T14:33:58.440Z,79.60
2019-02-05T14:36:29.006Z,80.00
2019-02-05T14:38:59.463Z,79.90
2019-02-05T14:41:31.127Z,80.80
2019-02-05T14:44:02.356Z,80.10
2019-02-05T14:46:32.672Z,80.20
2019-02-05T14:49:03.197Z,80.90
2019-02-05T14:51:34.726Z,82.00
2019-02-05T14:54:05.260Z,81.80
2019-02-05T14:56:35.722Z,81.80
2019-02-05T14:59:06.149Z,82.20
2019-02-05T15:01:43.046Z,82.70
2019-02-05T15:04:08.795Z,82.80
2019-02-05T15:06:39.257Z,83.10
2019-02-05T15:09:09.611Z,83.80
2019-02-05T15:11:41.114Z,85.40
2019-02-05T15:14:11.554Z,85.10
2019-02-05T15:16:42.351Z,85.00
2019-02-05T15:19:12.863Z,85.40
2019-02-05T15:21:43.394Z,85.10
2019-02-05T15:24:13.782Z,85.50
2019-02-05T15:26:44.604Z,85.80
2019-02-05T15:29:15.002Z,85.90
2019-02-05T15:31:54.224Z,86.50
2019-02-05T15:34:20.251Z,87.30
2019-02-05T15:36:51.401Z,86.70
2019-02-05T15:39:21.737Z,87.20
2019-02-05T15:41:52.932Z,87.20
2019-02-05T15:44:23.147Z,87.90
2019-02-05T15:46:53.589Z,88.40
2019-02-05T15:49:27.071Z,89.00
2019-02-05T15:51:57.275Z,90.20
2019-02-05T15:54:27.661Z,89.90
2019-02-05T15:56:58.202Z,90.20
2019-02-05T15:59:28.781Z,90.20
2019-02-05T16:02:06.379Z,90.20
2019-02-05T16:04:31.325Z,90.10
2019-02-05T16:07:01.705Z,90.30
2019-02-05T16:09:32.643Z,90.40
2019-02-05T16:12:03.102Z,90.60
2019-02-05T16:14:52.743Z,90.60
2019-02-05T16:17:23.231Z,90.90
2019-02-05T16:19:54.231Z,90.70
2019-02-05T16:22:24.790Z,90.70
2019-02-05T16:24:55.443Z,90.50
2019-02-05T16:27:25.919Z,90.50
2019-02-05T16:29:56.511Z,90.30
2019-02-05T16:32:27.050Z,90.40
2019-02-05T16:34:57.552Z,90.40
2019-02-05T16:37:28.103Z,90.40
2019-02-05T16:39:58.581Z,90.40
2019-02-05T16:42:29.204Z,90.60
2019-02-05T16:44:59.736Z,90.50
2019-02-05T16:47:30.989Z,90.50
2019-02-05T16:50:01.816Z,90.60
2019-02-05T16:52:32.265Z,90.60
2019-02-05T16:55:02.678Z,90.60
2019-02-05T16:57:33.413Z,90.80
2019-02-05T17:00:07.093Z,90.90
2019-02-05T17:02:37.615Z,91.10
2019-02-05T17:05:09.807Z,91.00
2019-02-05T17:07:40.242Z,91.10
2019-02-05T17:10:12.113Z,91.00
2019-02-05T17:12:42.900Z,91.00
2019-02-05T17:15:14.247Z,91.20
2019-02-05T17:17:44.738Z,91.10
2019-02-05T17:20:21.051Z,91.20
2019-02-05T17:22:52.292Z,91.30
2019-02-05T17:25:24.016Z,91.20
2019-02-05T17:27:55.187Z,91.50
2019-02-05T17:30:28.161Z,91.60
2019-02-05T17:32:58.693Z,91.50
2019-02-05T17:35:30.291Z,91.40
2019-02-05T17:38:00.685Z,91.40
2019-02-05T17:40:31.059Z,91.40
2019-02-05T17:43:01.633Z,91.30
2019-02-05T17:45:34.450Z,91.20
2019-02-05T17:48:08.258Z,91.20
2019-02-05T17:50:38.641Z,91.20
2019-02-05T17:53:12.210Z,91.20
2019-02-05T17:55:42.583Z,91.20
2019-02-05T17:58:13.113Z,91.10
2019-02-05T18:00:49.022Z,91.30
2019-02-05T18:03:19.700Z,91.00
2019-02-05T18:05:50.105Z,91.40
2019-02-05T18:08:20.760Z,91.30
2019-02-05T18:10:51.234Z,91.40
2019-02-05T18:13:22.172Z,91.30
2019-02-05T18:15:53.737Z,91.40
2019-02-05T18:18:24.222Z,91.50
2019-02-05T18:20:54.781Z,92.50
2019-02-05T18:23:25.403Z,92.50
2019-02-05T18:25:55.892Z,92.90
2019-02-05T18:28:26.293Z,93.30
2019-02-05T18:30:57.283Z,93.70
2019-02-05T18:33:28.105Z,94.00
2019-02-05T18:35:58.763Z,94.10
2019-02-05T18:38:29.290Z,94.20
2019-02-05T18:40:59.842Z,94.40
2019-02-05T18:43:30.375Z,94.40
2019-02-05T18:46:01.066Z,94.40
2019-02-05T18:48:31.681Z,94.40
2019-02-05T18:51:03.545Z,94.40
2019-02-05T18:53:34.364Z,94.30
2019-02-05T18:56:06.023Z,94.40
2019-02-05T18:58:36.614Z,94.30
2019-02-05T19:01:08.776Z,94.40
2019-02-05T19:03:39.504Z,94.40
2019-02-05T19:06:10.162Z,94.40
2019-02-05T19:08:40.623Z,94.50
2019-02-05T19:11:11.666Z,94.40
2019-02-05T19:13:42.202Z,94.40
2019-02-05T19:16:13.253Z,94.40
2019-02-05T19:18:44.084Z,94.20
2019-02-05T19:21:14.472Z,94.30
2019-02-05T19:23:46.112Z,94.20
2019-02-05T19:26:29.895Z,94.10
2019-02-05T19:29:00.673Z,94.00
2019-02-05T19:31:33.167Z,94.10
2019-02-05T19:34:06.085Z,94.00
2019-02-05T19:36:36.722Z,94.10
2019-02-05T19:39:08.831Z,94.10
2019-02-05T19:41:39.527Z,94.10
2019-02-05T19:44:10.230Z,94.20
2019-02-05T19:46:52.381Z,94.20
2019-02-05T19:49:25.750Z,94.20
2019-02-05T19:51:56.221Z,94.10
2019-02-05T19:54:27.006Z,94.10
2019-02-05T19:56:57.584Z,94.00
2019-02-05T19:59:28.963Z,94.10
2019-02-05T20:01:59.497Z,94.20
2019-02-05T20:04:30.139Z,94.10
2019-02-05T20:07:00.654Z,94.10
2019-02-05T20:09:31.080Z,94.20
2019-02-05T20:12:01.618Z,94.00
2019-02-05T20:14:32.367Z,94.10
2019-02-05T20:17:03.193Z,94.10
2019-02-05T20:19:33.760Z,94.00
2019-02-05T20:22:05.942Z,94.10
2019-02-05T20:24:36.345Z,94.10
2019-02-05T20:27:07.086Z,94.00
2019-02-05T20:29:38.625Z,94.00
2019-02-05T20:32:09.458Z,94.00
2019-02-05T20:34:40.088Z,93.90
2019-02-05T20:37:10.688Z,93.80
2019-02-05T20:39:41.320Z,93.80
2019-02-05T20:42:11.764Z,93.90
2019-02-05T20:44:42.238Z,93.90
2019-02-05T20:47:13.064Z,93.80
2019-02-05T20:49:43.674Z,93.80
2019-02-05T20:52:14.138Z,93.70
2019-02-05T20:54:48.597Z,93.80
2019-02-05T20:57:19.199Z,93.60
2019-02-05T20:59:55.602Z,93.70
2019-02-05T21:02:26.056Z,93.60
2019-02-05T21:06:50.832Z,93.60
2019-02-05T21:09:22.193Z,93.60
2019-02-05T21:11:52.476Z,93.70
2019-02-05T21:14:22.845Z,93.60
2019-02-05T21:16:53.384Z,93.60
2019-02-05T21:19:23.722Z,93.50
2019-02-05T21:21:54.442Z,93.60
2019-02-05T21:24:24.946Z,93.60
2019-02-05T21:26:55.487Z,93.60
2019-02-05T21:29:26.181Z,93.60
2019-02-05T21:31:56.598Z,93.60
2019-02-05T21:34:27.193Z,93.70
2019-02-05T21:36:57.552Z,93.70
2019-02-05T21:39:27.993Z,93.60
2019-02-05T21:41:58.431Z,93.60
2019-02-05T21:44:28.833Z,93.60
2019-02-05T21:46:59.132Z,93.70
2019-02-05T21:49:30.172Z,93.70
2019-02-05T21:52:01.496Z,93.80
2019-02-05T21:55:39.002Z,93.80
2019-02-05T21:58:12.298Z,93.90
2019-02-05T22:00:41.807Z,93.80
2019-02-05T22:03:29.607Z,93.70
2019-02-05T22:06:00.503Z,93.70
2019-02-05T22:08:30.896Z,93.80
2019-02-05T22:11:01.418Z,93.80
2019-02-05T22:13:31.820Z,93.80
2019-02-05T22:16:02.283Z,93.70
2019-02-05T22:18:32.598Z,93.80
2019-02-05T22:21:03.330Z,93.80
2019-02-05T22:23:34.171Z,93.70
2019-02-05T22:26:04.739Z,93.80
2019-02-05T22:28:35.427Z,93.70
2019-02-05T22:31:05.951Z,93.70
2019-02-05T22:33:36.392Z,93.80
2019-02-05T22:36:07.126Z,93.90
2019-02-05T22:38:37.647Z,94.10
2019-02-05T22:41:08.166Z,94.10
2019-02-05T22:43:38.611Z,94.00
2019-02-05T22:46:09.445Z,93.90
2019-02-05T22:48:41.215Z,94.00
2019-02-05T22:51:11.600Z,93.80
2019-02-05T22:53:42.050Z,93.90
2019-02-05T22:56:12.578Z,93.90
2019-02-05T22:58:43.295Z,93.90
2019-02-05T23:01:45.238Z,94.00
2019-02-05T23:04:50.198Z,94.10
2019-02-05T23:07:15.782Z,94.00
2019-02-05T23:09:53.477Z,94.00
2019-02-05T23:12:30.730Z,94.00
2019-02-05T23:15:06.783Z,94.00
2019-02-05T23:17:37.257Z,93.90
2019-02-05T23:20:10.491Z,94.00
2019-02-05T23:22:41.772Z,94.00
2019-02-05T23:25:12.785Z,94.10
2019-02-05T23:27:43.098Z,94.10
2019-02-05T23:30:21.595Z,94.00
2019-02-05T23:32:52.111Z,94.10
2019-02-05T23:35:22.608Z,94.00
2019-02-05T23:37:52.988Z,94.00
2019-02-05T23:40:23.363Z,94.00
2019-02-05T23:42:53.944Z,93.90
2019-02-05T23:45:24.302Z,93.90
2019-02-05T23:47:54.629Z,93.90
2019-02-05T23:50:25.557Z,93.90
2019-02-05T23:52:56.069Z,93.90
2019-02-05T23:55:26.553Z,94.00
2019-02-05T23:57:56.864Z,94.10
